Time;durP1;ratioP1;P1;durP2;ratioP2;P2;SDS_P1;SDS_P2;PMS_P1;PMS_P2;Temp;Humidity;BMP_temperature;BMP_pressure;BME280_temperature;BME280_humidity;BME280_pressure;Samples;Min_cycle;Max_cycle;Signal;HPM_P1;HPM_P2
2022/09/15 00:03:15;;;;;;;0.93;0.70;;;18.50;90.00;;;;;;10479755;28;20025;-65
2022/09/15 00:08:16;;;;;;;1.00;0.50;;;18.50;90.10;;;;;;10471634;28;20053;-65
2022/09/15 00:13:17;;;;;;;0.90;0.60;;;18.50;90.10;;;;;;10470863;28;20016;-65
2022/09/15 00:18:18;;;;;;;0.47;0.40;;;18.50;90.10;;;;;;10472599;28;20029;-65
2022/09/15 00:23:19;;;;;;;0.95;0.43;;;18.50;90.20;;;;;;10472504;28;20021;-65
2022/09/15 00:28:21;;;;;;;0.93;0.45;;;18.50;90.20;;;;;;10464422;28;20587;-66
2022/09/15 00:33:22;;;;;;;0.40;0.40;;;18.40;90.30;;;;;;10466607;28;20208;-66
2022/09/15 00:38:23;;;;;;;2.10;0.73;;;18.50;90.30;;;;;;10467807;28;20033;-65
2022/09/15 00:43:51;;;;;;;1.23;0.60;;;18.40;90.30;;;;;;10455263;28;20083;-65
2022/09/15 00:49:04;;;;;;;2.05;0.50;;;18.50;90.40;;;;;;10470949;28;20025;-65
2022/09/15 00:54:11;;;;;;;0.57;0.50;;;18.40;90.30;;;;;;10473512;28;20377;-65
2022/09/15 00:59:17;;;;;;;1.90;0.88;;;18.40;90.40;;;;;;10468411;28;20515;-65
2022/09/15 01:04:18;;;;;;;0.70;0.70;;;18.40;90.40;;;;;;10470185;28;20027;-65
2022/09/15 01:09:48;;;;;;;1.55;0.90;;;18.40;90.40;;;;;;10474818;28;20055;-65
2022/09/15 01:14:49;;;;;;;0.85;0.68;;;18.30;90.40;;;;;;10455650;28;20044;-66
2022/09/15 01:20:05;;;;;;;0.52;0.50;;;18.30;90.40;;;;;;10473016;28;20032;-65
2022/09/15 01:25:08;;;;;;;0.90;0.70;;;18.30;90.50;;;;;;10463344;28;20047;-65
2022/09/15 01:30:15;;;;;;;1.50;0.80;;;18.30;90.50;;;;;;10466941;28;20020;-65
2022/09/15 01:35:35;;;;;;;1.42;0.70;;;18.30;90.50;;;;;;10465280;28;20349;-65
2022/09/15 01:40:48;;;;;;;1.85;0.88;;;18.30;90.50;;;;;;10469312;28;20021;-65
2022/09/15 01:45:50;;;;;;;0.95;0.80;;;18.30;90.50;;;;;;10473704;28;20107;-65
2022/09/15 01:50:57;;;;;;;1.50;0.70;;;18.30;90.50;;;;;;10478528;28;20031;-68
2022/09/15 01:56:11;;;;;;;2.47;0.90;;;18.30;90.60;;;;;;10476828;28;20045;-65
2022/09/15 02:01:18;;;;;;;1.15;0.95;;;18.30;90.60;;;;;;10481987;28;20036;-66
2022/09/15 02:06:36;;;;;;;1.65;0.88;;;18.30;90.60;;;;;;10482943;28;20106;-65
2022/09/15 02:11:51;;;;;;;1.70;1.00;;;18.30;90.60;;;;;;10445191;28;1225832;-65
2022/09/15 02:16:53;;;;;;;2.10;0.90;;;18.20;90.90;;;;;;10483045;28;20035;-65
2022/09/15 02:22:09;;;;;;;1.73;0.95;;;18.20;90.60;;;;;;10485411;28;20033;-65
2022/09/15 02:27:21;;;;;;;1.50;0.85;;;18.30;90.70;;;;;;10481301;28;20025;-66
2022/09/15 02:32:26;;;;;;;2.42;1.00;;;18.20;90.70;;;;;;10483525;28;20025;-65
2022/09/15 02:37:27;;;;;;;2.33;0.90;;;18.20;90.70;;;;;;10483898;28;20109;-65
2022/09/15 02:42:30;;;;;;;1.60;1.00;;;18.20;91.00;;;;;;10484528;28;20031;-64
2022/09/15 02:47:31;;;;;;;1.77;0.90;;;18.20;90.70;;;;;;10484478;28;20020;-65
2022/09/15 02:52:31;;;;;;;1.08;0.82;;;18.20;90.70;;;;;;10485373;28;20036;-65
2022/09/15 02:57:33;;;;;;;3.38;0.95;;;18.20;90.70;;;;;;10482371;28;20332;-65
2022/09/15 03:02:33;;;;;;;1.02;0.82;;;18.20;90.70;;;;;;10485581;28;20531;-65
2022/09/15 03:07:36;;;;;;;1.02;0.90;;;18.20;90.80;;;;;;10486387;28;20048;-66
2022/09/15 03:12:42;;;;;;;2.40;0.90;;;18.20;90.80;;;;;;10483542;28;20502;-65
2022/09/15 03:17:45;;;;;;;1.75;0.77;;;18.10;90.70;;;;;;10483928;28;20049;-65
2022/09/15 03:22:46;;;;;;;2.50;0.80;;;18.10;90.70;;;;;;10485132;28;20362;-65
2022/09/15 03:27:47;;;;;;;2.85;0.80;;;18.10;90.70;;;;;;10485994;28;20032;-65
2022/09/15 03:32:48;;;;;;;2.20;0.73;;;18.10;90.70;;;;;;10486058;28;20039;-66
2022/09/15 03:37:49;;;;;;;2.97;1.20;;;18.10;90.70;;;;;;10483914;28;20040;-65
2022/09/15 03:42:49;;;;;;;3.00;0.80;;;18.10;90.70;;;;;;10484984;28;20028;-65
2022/09/15 03:47:50;;;;;;;3.70;0.90;;;18.10;90.70;;;;;;10483450;28;20405;-66
2022/09/15 03:52:51;;;;;;;0.80;0.70;;;18.10;90.70;;;;;;10481040;28;20123;-65
2022/09/15 03:57:52;;;;;;;1.45;0.70;;;18.10;90.70;;;;;;10480339;28;20041;-65
2022/09/15 04:02:52;;;;;;;2.33;0.80;;;18.10;90.70;;;;;;10481817;28;20017;-65
2022/09/15 04:07:53;;;;;;;2.70;1.00;;;18.10;90.70;;;;;;10478054;28;20163;-64
2022/09/15 04:12:54;;;;;;;2.45;0.60;;;18.10;90.70;;;;;;10482208;28;20016;-65
2022/09/15 04:17:54;;;;;;;0.85;0.60;;;18.10;90.70;;;;;;10478081;28;20062;-65
2022/09/15 04:22:55;;;;;;;0.68;0.60;;;18.10;90.70;;;;;;10473291;28;20124;-64
2022/09/15 04:27:56;;;;;;;2.20;0.75;;;18.10;90.70;;;;;;10481755;28;20039;-65
2022/09/15 04:32:57;;;;;;;2.72;0.82;;;18.00;90.70;;;;;;10475950;28;20401;-65
2022/09/15 04:37:58;;;;;;;3.25;0.70;;;18.00;90.70;;;;;;10480860;28;20051;-65
2022/09/15 04:43:00;;;;;;;1.50;0.77;;;18.00;90.70;;;;;;10483726;28;20469;-66
2022/09/15 04:48:01;;;;;;;3.55;0.80;;;18.00;90.70;;;;;;10478105;28;20024;-65
2022/09/15 04:53:02;;;;;;;1.35;0.60;;;18.00;90.70;;;;;;10479145;28;20040;-65
2022/09/15 04:58:03;;;;;;;2.33;0.60;;;18.00;90.70;;;;;;10477332;28;20044;-65
2022/09/15 05:03:04;;;;;;;1.70;0.90;;;18.00;90.70;;;;;;10480783;28;20217;-66
2022/09/15 05:08:06;;;;;;;3.22;0.70;;;18.00;90.70;;;;;;10477894;28;20038;-65
2022/09/15 05:13:06;;;;;;;3.63;1.05;;;18.00;90.70;;;;;;10476799;28;20028;-66
2022/09/15 05:18:07;;;;;;;1.35;0.65;;;18.00;90.70;;;;;;10475806;28;20047;-66
2022/09/15 05:23:09;;;;;;;2.47;0.60;;;17.90;90.70;;;;;;10463147;28;20050;-65
2022/09/15 05:28:10;;;;;;;1.85;0.60;;;18.00;90.70;;;;;;10479251;28;20060;-65
2022/09/15 05:33:11;;;;;;;1.23;0.47;;;17.90;90.70;;;;;;10479530;28;20124;-65
2022/09/15 05:38:11;;;;;;;3.25;0.80;;;18.00;90.70;;;;;;10491141;28;20045;-65
2022/09/15 05:43:13;;;;;;;5.07;0.70;;;17.90;90.70;;;;;;10418736;28;20139;-65
2022/09/15 05:48:14;;;;;;;1.58;0.80;;;18.00;90.70;;;;;;10409248;28;20024;-66
2022/09/15 05:53:15;;;;;;;3.05;1.23;;;17.90;90.70;;;;;;10392816;28;20033;-65
2022/09/15 05:58:15;;;;;;;1.27;0.40;;;18.00;90.70;;;;;;10415476;22;20584;-65
2022/09/15 06:03:16;;;;;;;1.45;1.00;;;18.00;90.70;;;;;;10396737;28;20029;-65
2022/09/15 06:08:17;;;;;;;1.95;0.50;;;17.90;90.70;;;;;;10408155;28;20131;-66
2022/09/15 06:13:18;;;;;;;3.35;1.08;;;18.00;90.70;;;;;;10405720;28;20389;-65
2022/09/15 06:18:18;;;;;;;2.58;0.70;;;17.90;90.60;;;;;;10403075;28;20133;-67
2022/09/15 06:23:19;;;;;;;1.38;0.40;;;18.00;90.60;;;;;;10408511;28;20078;-66
2022/09/15 06:28:20;;;;;;;0.82;0.50;;;18.00;90.60;;;;;;10400257;28;20531;-65
2022/09/15 06:33:21;;;;;;;2.08;0.60;;;18.00;90.60;;;;;;10404349;28;20028;-66
2022/09/15 06:38:21;;;;;;;2.10;0.57;;;18.00;90.60;;;;;;10405871;28;20615;-65
2022/09/15 06:43:22;;;;;;;1.10;0.68;;;18.00;90.60;;;;;;10401505;28;20274;-66
2022/09/15 06:48:23;;;;;;;2.47;0.60;;;18.00;90.50;;;;;;10401431;28;20271;-65
2022/09/15 06:53:24;;;;;;;1.50;0.45;;;18.00;90.50;;;;;;10407415;28;20040;-65
2022/09/15 06:58:25;;;;;;;2.20;0.60;;;18.00;90.40;;;;;;10405298;28;20056;-66
2022/09/15 07:03:26;;;;;;;5.00;0.75;;;18.00;90.40;;;;;;10404940;28;20032;-65
2022/09/15 07:08:27;;;;;;;0.60;0.30;;;18.10;90.40;;;;;;10401999;28;20451;-66
2022/09/15 07:13:27;;;;;;;3.10;0.70;;;18.10;90.30;;;;;;10383499;28;20640;-65
2022/09/15 07:18:29;;;;;;;3.78;0.90;;;18.20;90.30;;;;;;10396946;28;20044;-66
2022/09/15 07:23:29;;;;;;;2.15;0.60;;;18.10;90.20;;;;;;10402062;28;20382;-65
2022/09/15 07:28:30;;;;;;;2.45;0.63;;;18.10;90.20;;;;;;10401102;28;20040;-65
2022/09/15 07:33:32;;;;;;;2.30;0.68;;;18.20;90.20;;;;;;10401770;28;20497;-66
2022/09/15 07:38:34;;;;;;;2.42;0.80;;;18.20;90.20;;;;;;10398723;28;20638;-66
2022/09/15 07:43:35;;;;;;;2.88;0.80;;;18.20;90.10;;;;;;10402740;28;20443;-65
2022/09/15 07:48:36;;;;;;;3.17;0.47;;;18.20;90.10;;;;;;10400938;28;21535;-65
2022/09/15 07:53:37;;;;;;;4.88;0.93;;;18.20;90.10;;;;;;10398381;28;20043;-65
2022/09/15 07:58:38;;;;;;;1.65;0.60;;;18.20;90.00;;;;;;10398796;28;20437;-66
2022/09/15 08:03:41;;;;;;;3.53;0.63;;;18.20;90.00;;;;;;10398952;28;20316;-65
2022/09/15 08:08:45;;;;;;;4.30;0.75;;;18.20;90.00;;;;;;10385946;28;20020;-65
2022/09/15 08:13:48;;;;;;;1.15;0.70;;;18.20;90.00;;;;;;10397641;28;20147;-65
2022/09/15 08:18:51;;;;;;;2.60;0.93;;;18.20;90.00;;;;;;10401619;28;20560;-65
2022/09/15 08:23:57;;;;;;;1.75;0.55;;;18.30;90.00;;;;;;10382617;28;20033;-66
2022/09/15 08:28:58;;;;;;;3.05;0.55;;;18.30;89.90;;;;;;10408957;28;20066;-65
2022/09/15 08:34:02;;;;;;;2.17;1.02;;;18.30;89.80;;;;;;10395470;28;20305;-66
2022/09/15 08:39:03;;;;;;;1.05;0.47;;;18.30;89.70;;;;;;10393243;28;20052;-65
2022/09/15 08:44:07;;;;;;;1.88;0.50;;;18.40;89.70;;;;;;10403803;28;20035;-65
2022/09/15 08:49:28;;;;;;;2.38;0.60;;;18.40;89.70;;;;;;10402799;28;20039;-65
2022/09/15 08:54:29;;;;;;;0.90;0.43;;;18.40;89.60;;;;;;10397822;28;20475;-65
2022/09/15 08:59:35;;;;;;;2.00;0.63;;;18.40;89.70;;;;;;10401384;28;20424;-65
2022/09/15 09:04:42;;;;;;;2.22;1.02;;;18.40;89.60;;;;;;10403012;28;20036;-65
2022/09/15 09:10:05;;;;;;;3.85;1.10;;;18.50;89.50;;;;;;10394170;28;20028;-65
2022/09/15 09:15:37;;;;;;;2.80;0.77;;;18.60;89.40;;;;;;10399336;28;20313;-65
2022/09/15 09:20:56;;;;;;;2.05;1.02;;;18.60;89.30;;;;;;10393784;28;20064;-66
2022/09/15 09:25:57;;;;;;;2.47;0.60;;;18.60;89.30;;;;;;10378732;28;20560;-68
2022/09/15 09:31:07;;;;;;;1.73;0.88;;;18.70;89.30;;;;;;10395270;28;20098;-65
2022/09/15 09:36:09;;;;;;;4.10;0.80;;;18.70;89.10;;;;;;10391927;28;20039;-65
2022/09/15 09:41:24;;;;;;;2.28;0.90;;;18.80;89.70;;;;;;10391528;28;20029;-65
2022/09/15 09:46:25;;;;;;;2.58;0.75;;;18.80;89.00;;;;;;10397160;28;20097;-65
2022/09/15 09:51:37;;;;;;;2.70;0.68;;;18.80;88.90;;;;;;10392086;28;20724;-65
2022/09/15 09:56:39;;;;;;;2.38;0.70;;;18.80;88.90;;;;;;10395248;28;20528;-65
2022/09/15 10:01:39;;;;;;;2.60;0.68;;;18.80;88.90;;;;;;10397336;28;20552;-65
2022/09/15 10:06:40;;;;;;;2.92;0.88;;;18.90;88.90;;;;;;10400401;28;20079;-65
2022/09/15 10:11:43;;;;;;;1.27;0.50;;;18.90;88.80;;;;;;10396247;28;20037;-65
2022/09/15 10:17:00;;;;;;;1.65;0.80;;;19.00;88.80;;;;;;10399502;28;20033;-65
2022/09/15 10:22:02;;;;;;;3.35;0.90;;;19.00;88.70;;;;;;10399885;28;20032;-66
2022/09/15 10:27:30;;;;;;;2.38;0.95;;;18.90;88.70;;;;;;10396518;28;20051;-64
2022/09/15 10:32:31;;;;;;;1.40;0.50;;;19.00;88.60;;;;;;10400669;28;20036;-65
2022/09/15 10:37:44;;;;;;;2.05;0.80;;;19.00;88.70;;;;;;10404397;28;20507;-65
2022/09/15 10:42:49;;;;;;;3.22;0.80;;;19.00;88.60;;;;;;10405238;28;20052;-65
2022/09/15 10:48:02;;;;;;;3.00;0.75;;;19.00;88.60;;;;;;10404458;28;20028;-67
2022/09/15 10:53:37;;;;;;;3.00;0.85;;;19.00;88.60;;;;;;10407612;28;20071;-65
2022/09/15 10:58:40;;;;;;;1.20;0.70;;;19.10;88.30;;;;;;10396191;28;20113;-65
2022/09/15 11:04:05;;;;;;;1.92;0.63;;;19.10;88.40;;;;;;10411122;28;20496;-65
2022/09/15 11:09:27;;;;;;;3.10;0.90;;;19.20;88.30;;;;;;10402974;28;20496;-65
2022/09/15 11:14:37;;;;;;;2.03;0.65;;;19.20;88.60;;;;;;10402213;28;20031;-66
2022/09/15 11:19:59;;;;;;;1.40;0.73;;;19.30;87.90;;;;;;10403288;28;20481;-65
2022/09/15 11:25:16;;;;;;;1.50;0.63;;;19.30;87.80;;;;;;10405480;28;20069;-65
2022/09/15 11:30:18;;;;;;;0.87;0.70;;;19.30;87.80;;;;;;10406177;28;20033;-65
2022/09/15 11:35:32;;;;;;;2.15;0.60;;;19.40;88.10;;;;;;10403401;28;20028;-65
2022/09/15 11:40:38;;;;;;;1.05;0.70;;;19.30;88.00;;;;;;10403190;28;20033;-65
2022/09/15 11:45:46;;;;;;;3.45;0.70;;;19.30;88.10;;;;;;10406311;28;20031;-68
2022/09/15 11:50:51;;;;;;;1.95;0.60;;;19.30;88.10;;;;;;10400194;28;20552;-64
2022/09/15 11:55:59;;;;;;;1.65;0.60;;;19.30;88.10;;;;;;10399892;28;20946;-66
2022/09/15 12:01:09;;;;;;;1.00;0.50;;;19.30;88.00;;;;;;10401500;28;20481;-65
2022/09/15 12:06:26;;;;;;;1.80;0.73;;;19.40;87.90;;;;;;10399624;28;20775;-65
2022/09/15 12:11:30;;;;;;;1.73;0.68;;;19.40;87.80;;;;;;10398272;28;20100;-65
2022/09/15 12:16:33;;;;;;;2.50;0.80;;;19.40;87.90;;;;;;10401225;28;20034;-64
2022/09/15 12:21:51;;;;;;;1.88;0.60;;;19.50;87.80;;;;;;10401153;28;20043;-64
2022/09/15 12:26:52;;;;;;;2.15;0.65;;;19.60;87.60;;;;;;10399692;28;20157;-63
2022/09/15 12:32:27;;;;;;;1.10;0.80;;;19.60;87.50;;;;;;10404114;28;20364;-63
2022/09/15 12:37:30;;;;;;;1.65;0.60;;;19.60;87.40;;;;;;10400201;28;20036;-63
2022/09/15 12:42:34;;;;;;;2.70;0.80;;;19.50;87.60;;;;;;10402698;28;20480;-64
2022/09/15 12:47:59;;;;;;;1.73;0.80;;;19.50;87.70;;;;;;10401647;28;20029;-63
2022/09/15 12:53:25;;;;;;;1.67;0.85;;;19.50;87.70;;;;;;10382808;28;20390;-63
2022/09/15 12:58:45;;;;;;;1.58;0.60;;;19.50;87.80;;;;;;10401206;28;20052;-61
2022/09/15 13:03:49;;;;;;;2.70;0.70;;;19.50;87.80;;;;;;10397063;28;20185;-61
2022/09/15 13:09:03;;;;;;;1.67;0.50;;;19.50;87.90;;;;;;10402319;28;20036;-61
2022/09/15 13:14:13;;;;;;;2.15;0.70;;;19.40;88.10;;;;;;10398966;28;20958;-62
2022/09/15 13:19:14;;;;;;;3.38;0.70;;;19.40;88.00;;;;;;10399192;28;20471;-61
2022/09/15 13:24:27;;;;;;;1.42;0.50;;;19.40;88.00;;;;;;10377845;28;20136;-62
2022/09/15 13:29:31;;;;;;;1.10;0.50;;;19.40;87.90;;;;;;10405849;28;20191;-61
2022/09/15 13:34:56;;;;;;;1.85;0.70;;;19.50;88.70;;;;;;10399310;28;20472;-61
2022/09/15 13:40:26;;;;;;;1.95;0.50;;;19.50;88.00;;;;;;10395108;28;20399;-61
2022/09/15 13:45:45;;;;;;;1.95;0.60;;;19.60;87.90;;;;;;10394836;28;20384;-63
2022/09/15 13:51:28;;;;;;;2.13;0.60;;;19.70;87.70;;;;;;10387922;28;20029;-62
2022/09/15 13:56:34;;;;;;;2.17;0.77;;;19.90;87.30;;;;;;10401001;28;20375;-62
2022/09/15 14:01:39;;;;;;;2.17;0.63;;;19.90;87.20;;;;;;10408049;28;20034;-63
2022/09/15 14:06:43;;;;;;;1.38;0.63;;;19.80;87.40;;;;;;10396752;28;20790;-63
2022/09/15 14:11:47;;;;;;;1.58;0.60;;;19.80;87.50;;;;;;10406161;28;20260;-64
2022/09/15 14:16:49;;;;;;;1.05;0.40;;;19.80;87.50;;;;;;10404753;28;20478;-62
2022/09/15 14:21:50;;;;;;;1.23;0.60;;;19.80;87.60;;;;;;10412240;28;20549;-62
2022/09/15 14:26:51;;;;;;;2.30;0.50;;;19.80;87.60;;;;;;10407097;28;20139;-63
2022/09/15 14:31:52;;;;;;;3.00;1.10;;;19.80;87.60;;;;;;10403085;28;20036;-61
2022/09/15 14:37:05;;;;;;;2.45;0.80;;;19.80;87.50;;;;;;10408592;28;20075;-63
2022/09/15 14:42:29;;;;;;;1.58;0.68;;;19.80;87.20;;;;;;10401939;28;20017;-62
2022/09/15 14:47:30;;;;;;;1.20;0.40;;;19.90;87.00;;;;;;10386617;28;20644;-62
2022/09/15 14:52:36;;;;;;;1.55;0.57;;;19.90;87.00;;;;;;10379928;28;20028;-63
2022/09/15 14:57:41;;;;;;;1.67;0.80;;;20.10;87.00;;;;;;10400399;28;20045;-62
2022/09/15 15:02:57;;;;;;;1.77;0.50;;;20.20;87.30;;;;;;10385132;28;20087;-62
2022/09/15 15:08:03;;;;;;;0.65;0.43;;;20.20;86.40;;;;;;10381954;28;20028;-62
2022/09/15 15:13:07;;;;;;;1.65;0.60;;;20.20;86.70;;;;;;10404808;28;20144;-62
2022/09/15 15:18:39;;;;;;;0.73;0.40;;;20.10;86.70;;;;;;10410286;28;20455;-61
2022/09/15 15:23:44;;;;;;;1.95;0.57;;;20.10;86.60;;;;;;10403753;28;20837;-61
2022/09/15 15:28:45;;;;;;;1.63;0.40;;;20.00;86.90;;;;;;10399141;28;20462;-63
2022/09/15 15:34:20;;;;;;;1.98;0.70;;;19.90;87.20;;;;;;10385456;28;20119;-61
2022/09/15 15:39:23;;;;;;;4.03;0.68;;;19.90;87.20;;;;;;10382625;28;20063;-62
2022/09/15 15:44:26;;;;;;;5.15;1.02;;;19.90;87.50;;;;;;10394281;28;20468;-62
2022/09/15 15:49:29;;;;;;;5.50;1.02;;;19.90;87.70;;;;;;10398777;28;20491;-63
2022/09/15 15:54:32;;;;;;;3.60;0.80;;;19.80;87.90;;;;;;10399509;28;20381;-62
2022/09/15 15:59:33;;;;;;;1.52;0.47;;;19.80;88.00;;;;;;10399614;28;20056;-62
2022/09/15 16:04:34;;;;;;;2.85;0.63;;;19.70;88.00;;;;;;10394977;28;20020;-61
2022/09/15 16:09:35;;;;;;;4.75;0.85;;;19.20;88.70;;;;;;10391717;28;20129;-61
2022/09/15 16:14:35;;;;;;;1.42;0.55;;;19.00;89.40;;;;;;10395857;28;20032;-62
2022/09/15 16:19:36;;;;;;;4.43;0.70;;;19.10;89.40;;;;;;10392893;28;20165;-62
2022/09/15 16:24:37;;;;;;;3.88;0.60;;;19.10;89.30;;;;;;10394572;28;20523;-60
2022/09/15 16:29:37;;;;;;;8.68;0.73;;;19.20;89.20;;;;;;10392958;28;20055;-60
2022/09/15 16:34:38;;;;;;;2.53;0.80;;;19.20;89.20;;;;;;10425307;22;20460;-60
2022/09/15 16:39:39;;;;;;;3.15;0.68;;;19.20;89.40;;;;;;10482778;27;20431;-61
2022/09/15 16:44:45;;;;;;;2.80;0.82;;;19.20;89.40;;;;;;10481397;27;20392;-61
2022/09/15 16:49:45;;;;;;;1.17;0.60;;;19.20;89.60;;;;;;10437697;27;20502;-61
2022/09/15 16:54:46;;;;;;;1.20;0.50;;;19.20;89.70;;;;;;10445442;28;20028;-61
2022/09/15 16:59:47;;;;;;;2.67;0.43;;;19.20;89.90;;;;;;10460979;27;20318;-61
2022/09/15 17:04:47;;;;;;;4.03;0.90;;;19.20;90.00;;;;;;10464569;28;20426;-61
2022/09/15 17:09:50;;;;;;;1.85;0.60;;;19.20;90.00;;;;;;10484521;27;20067;-61
2022/09/15 17:14:50;;;;;;;4.32;1.27;;;19.20;90.00;;;;;;10474506;28;20291;-65
2022/09/15 17:19:51;;;;;;;3.10;0.60;;;19.20;90.10;;;;;;10450383;28;20501;-64
2022/09/15 17:24:52;;;;;;;2.45;0.50;;;19.20;90.20;;;;;;10462325;28;20020;-65
2022/09/15 17:29:52;;;;;;;2.28;0.43;;;19.10;90.20;;;;;;10477915;28;20050;-61
2022/09/15 17:34:53;;;;;;;4.15;0.80;;;19.00;90.30;;;;;;10426981;28;20372;-62
2022/09/15 17:39:54;;;;;;;1.52;0.50;;;19.00;90.50;;;;;;10396696;28;20150;-61
2022/09/15 17:44:55;;;;;;;1.45;0.52;;;19.00;90.60;;;;;;10431471;28;20435;-61
2022/09/15 17:49:56;;;;;;;2.53;0.98;;;19.00;90.60;;;;;;10441400;28;20109;-64
2022/09/15 17:54:56;;;;;;;2.17;0.77;;;19.00;90.60;;;;;;10425885;28;20028;-63
2022/09/15 17:59:57;;;;;;;2.90;1.70;;;18.90;90.60;;;;;;10447417;28;20379;-64
2022/09/15 18:04:59;;;;;;;4.82;0.73;;;18.90;90.70;;;;;;10435639;28;20039;-66
2022/09/15 18:09:59;;;;;;;5.82;0.93;;;18.80;90.70;;;;;;10434621;28;20033;-64
2022/09/15 18:15:01;;;;;;;4.13;0.70;;;18.60;90.80;;;;;;10433893;28;20940;-68
2022/09/15 18:20:03;;;;;;;2.47;0.47;;;18.60;90.90;;;;;;10457289;28;20036;-63
2022/09/15 18:25:04;;;;;;;7.45;0.55;;;18.60;90.80;;;;;;10519109;28;20082;-63
2022/09/15 18:30:06;;;;;;;5.47;0.70;;;18.60;90.80;;;;;;10522809;28;20024;-64
2022/09/15 18:35:08;;;;;;;3.22;0.55;;;18.60;90.80;;;;;;10546330;27;20052;-63
2022/09/15 18:40:11;;;;;;;1.95;0.70;;;18.60;90.80;;;;;;10563317;28;20043;-63
2022/09/15 18:45:14;;;;;;;4.72;1.65;;;18.60;90.80;;;;;;10562179;28;20507;-63
2022/09/15 18:50:17;;;;;;;3.05;0.65;;;18.60;90.80;;;;;;10561690;27;20039;-63
2022/09/15 18:55:21;;;;;;;2.63;0.70;;;18.60;90.80;;;;;;10559911;27;20020;-63
2022/09/15 19:00:23;;;;;;;1.88;0.70;;;18.60;90.90;;;;;;10557804;27;20068;-64
2022/09/15 19:05:25;;;;;;;3.28;0.98;;;18.50;90.90;;;;;;10555453;27;20024;-63
2022/09/15 19:10:26;;;;;;;3.15;0.80;;;18.50;90.80;;;;;;10556414;27;20103;-63
2022/09/15 19:15:28;;;;;;;2.13;0.82;;;18.50;90.90;;;;;;10547395;27;20356;-64
2022/09/15 19:20:29;;;;;;;1.70;0.70;;;18.50;90.90;;;;;;10559469;28;20118;-66
2022/09/15 19:25:30;;;;;;;2.83;0.70;;;18.40;91.20;;;;;;10555488;28;20646;-63
2022/09/15 19:30:31;;;;;;;2.50;0.80;;;18.40;90.90;;;;;;10556719;28;20034;-63
2022/09/15 19:35:31;;;;;;;3.35;1.00;;;18.40;90.90;;;;;;10560012;28;20032;-64
2022/09/15 19:40:32;;;;;;;2.30;0.82;;;18.40;91.00;;;;;;10539218;28;20032;-63
2022/09/15 19:45:33;;;;;;;2.95;0.90;;;18.40;91.00;;;;;;10556082;28;20019;-64
2022/09/15 19:50:33;;;;;;;2.15;0.68;;;18.40;91.00;;;;;;10553789;28;20039;-64
2022/09/15 19:55:34;;;;;;;3.58;0.60;;;18.40;91.00;;;;;;10551487;28;20024;-63
2022/09/15 20:00:35;;;;;;;1.02;0.50;;;18.30;90.90;;;;;;10554958;28;20024;-64
2022/09/15 20:05:35;;;;;;;1.73;0.63;;;18.30;90.90;;;;;;10555089;28;20027;-64
2022/09/15 20:10:38;;;;;;;1.63;0.50;;;18.30;90.90;;;;;;10548809;28;20114;-63
2022/09/15 20:15:39;;;;;;;2.60;0.75;;;18.30;90.90;;;;;;10554875;27;20556;-64
2022/09/15 20:20:40;;;;;;;2.05;0.52;;;18.30;90.90;;;;;;10547717;28;20513;-64
2022/09/15 20:25:40;;;;;;;3.67;0.82;;;18.20;90.90;;;;;;10544654;28;20035;-65
2022/09/15 20:30:41;;;;;;;2.83;0.50;;;18.30;90.90;;;;;;10545858;28;20111;-64
2022/09/15 20:35:42;;;;;;;1.58;0.47;;;18.20;90.90;;;;;;10547168;28;20051;-64
2022/09/15 20:40:42;;;;;;;1.95;0.57;;;18.20;90.90;;;;;;10548527;28;20032;-64
2022/09/15 20:45:52;;;;;;;1.73;0.60;;;18.20;90.90;;;;;;10550709;28;20114;-63
2022/09/15 20:51:00;;;;;;;1.13;0.50;;;18.20;90.90;;;;;;10546682;28;20061;-64
2022/09/15 20:56:01;;;;;;;1.92;0.57;;;18.20;90.90;;;;;;10532655;28;20724;-65
2022/09/15 21:01:09;;;;;;;2.00;0.52;;;18.10;90.90;;;;;;10541251;28;20028;-64
2022/09/15 21:06:13;;;;;;;2.45;0.40;;;18.10;90.90;;;;;;10543560;28;20035;-64
2022/09/15 21:11:16;;;;;;;0.93;0.40;;;18.10;90.90;;;;;;10538280;28;20372;-64
2022/09/15 21:16:19;;;;;;;1.15;0.55;;;18.10;90.90;;;;;;10538286;28;20028;-66
2022/09/15 21:21:29;;;;;;;0.90;0.35;;;18.10;90.90;;;;;;10543008;28;20068;-61
2022/09/15 21:27:25;;;;;;;2.13;0.70;;;18.10;90.90;;;;;;10547222;28;20071;-61
2022/09/15 21:31:58;;;;;;;4.03;0.68;;;18.10;90.90;;;;;;10548133;28;20036;-62
2022/09/15 21:36:59;;;;;;;0.45;0.30;;;18.00;90.90;;;;;;10561460;28;20542;-61
2022/09/15 21:42:00;;;;;;;1.52;0.60;;;18.00;90.90;;;;;;10566158;28;20438;-62
2022/09/15 21:47:00;;;;;;;1.08;0.50;;;18.00;90.90;;;;;;10543703;28;20031;-63
2022/09/15 21:52:01;;;;;;;1.30;0.30;;;18.00;90.90;;;;;;10559737;28;20033;-63
2022/09/15 21:57:02;;;;;;;1.15;0.52;;;18.00;90.90;;;;;;10565871;28;20035;-62
2022/09/15 22:02:03;;;;;;;1.55;0.45;;;18.00;91.00;;;;;;10558669;28;20088;-61
2022/09/15 22:07:04;;;;;;;2.05;1.00;;;17.90;91.00;;;;;;10544266;28;20039;-63
2022/09/15 22:12:05;;;;;;;0.50;0.30;;;17.90;91.00;;;;;;10561030;28;20031;-61
2022/09/15 22:17:06;;;;;;;3.25;0.50;;;17.90;91.00;;;;;;10563698;27;20039;-62
2022/09/15 22:22:07;;;;;;;2.17;0.40;;;17.90;91.00;;;;;;10567072;27;20075;-62
2022/09/15 22:27:08;;;;;;;0.95;0.40;;;17.90;91.00;;;;;;10568181;27;20419;-62
2022/09/15 22:32:09;;;;;;;0.77;0.28;;;17.90;91.00;;;;;;10569673;27;20043;-62
2022/09/15 22:37:09;;;;;;;1.65;0.50;;;17.80;91.00;;;;;;10569408;28;20035;-61
2022/09/15 22:42:10;;;;;;;1.48;0.47;;;17.80;91.00;;;;;;10569634;27;20118;-62
2022/09/15 22:47:11;;;;;;;0.90;0.30;;;17.80;91.00;;;;;;10547525;28;20379;-62
2022/09/15 22:52:12;;;;;;;1.35;0.40;;;17.80;91.00;;;;;;10568387;28;20043;-61
2022/09/15 22:57:12;;;;;;;1.23;0.30;;;17.80;91.00;;;;;;10567597;27;20547;-62
2022/09/15 23:02:13;;;;;;;0.95;0.40;;;17.70;91.00;;;;;;10565583;28;20528;-63
2022/09/15 23:07:14;;;;;;;0.77;0.30;;;17.70;91.00;;;;;;10567138;27;20073;-62
2022/09/15 23:12:14;;;;;;;1.42;0.30;;;17.70;91.00;;;;;;10567357;28;20116;-62
2022/09/15 23:17:15;;;;;;;2.15;0.40;;;17.70;91.00;;;;;;10564821;28;20039;-61
2022/09/15 23:22:16;;;;;;;0.95;0.30;;;17.70;91.00;;;;;;10571354;27;20020;-62
2022/09/15 23:27:17;;;;;;;0.73;0.30;;;17.70;91.00;;;;;;10568121;27;20027;-62
2022/09/15 23:32:17;;;;;;;1.17;0.40;;;17.70;91.00;;;;;;10567564;27;20058;-62
2022/09/15 23:37:18;;;;;;;0.95;0.20;;;17.60;91.00;;;;;;10567514;27;20035;-62
2022/09/15 23:42:19;;;;;;;0.38;0.20;;;17.60;91.00;;;;;;10568075;27;20467;-62
2022/09/15 23:47:19;;;;;;;0.30;0.17;;;17.60;91.00;;;;;;10565217;27;20034;-61
2022/09/15 23:52:20;;;;;;;1.23;0.30;;;17.60;91.00;;;;;;10565922;27;20055;-62
2022/09/15 23:57:21;;;;;;;2.25;0.98;;;17.60;91.00;;;;;;10568772;27;20410;-62
